Time;durP1;ratioP1;P1;durP2;ratioP2;P2;SDS_P1;SDS_P2;PMS_P1;PMS_P2;Temp;Humidity;BMP_temperature;BMP_pressure;BME280_temperature;BME280_humidity;BME280_pressure;Samples;Min_cycle;Max_cycle;Signal;HPM_P1;HPM_P2
2023/11/20 00:01:09;;;;;;;;;5.00;4.67;;;;;;;;4887385;29;48451;-81
2023/11/20 00:03:34;;;;;;;;;5.67;5.67;;;;;;;;4886888;29;45405;-80
2023/11/20 00:05:59;;;;;;;;;5.33;4.00;;;;;;;;4904950;29;45357;-81
2023/11/20 00:08:24;;;;;;;;;4.67;4.67;;;;;;;;4904887;29;45445;-80
2023/11/20 00:10:50;;;;;;;;;8.00;5.00;;;;;;;;4887302;29;47002;-80
2023/11/20 00:13:15;;;;;;;;;3.00;3.00;;;;;;;;4887474;29;45519;-80
2023/11/20 00:15:40;;;;;;;;;3.00;2.33;;;;;;;;4904839;29;45278;-80
2023/11/20 00:18:05;;;;;;;;;7.00;5.00;;;;;;;;4904297;29;45223;-80
2023/11/20 00:20:31;;;;;;;;;4.33;3.67;;;;;;;;4887306;29;48355;-80
2023/11/20 00:22:56;;;;;;;;;3.33;3.33;;;;;;;;4904356;29;45278;-80
2023/11/20 00:25:21;;;;;;;;;5.50;5.00;;;;;;;;4904456;29;45252;-80
2023/11/20 00:27:47;;;;;;;;;3.00;3.00;;;;;;;;4904395;29;45310;-80
2023/11/20 00:30:12;;;;;;;;;8.33;6.00;;;;;;;;4887017;29;47481;-81
2023/11/20 00:32:37;;;;;;;;;6.00;4.33;;;;;;;;4904093;29;45220;-80
2023/11/20 00:35:02;;;;;;;;;5.33;4.67;;;;;;;;4904201;29;45297;-81
2023/11/20 00:37:28;;;;;;;;;5.00;4.00;;;;;;;;4904117;29;45260;-80
2023/11/20 00:39:53;;;;;;;;;4.33;4.00;;;;;;;;4887127;29;48122;-81
2023/11/20 00:42:18;;;;;;;;;6.33;4.00;;;;;;;;4886853;29;45354;-80
2023/11/20 00:44:43;;;;;;;;;5.00;4.00;;;;;;;;4904329;29;45367;-81
2023/11/20 00:47:09;;;;;;;;;7.50;4.50;;;;;;;;4903990;29;45296;-80
2023/11/20 00:49:34;;;;;;;;;7.00;5.00;;;;;;;;4903706;29;45935;-80
2023/11/20 00:51:59;;;;;;;;;3.00;2.00;;;;;;;;4902952;29;45375;-81
2023/11/20 00:54:24;;;;;;;;;4.00;4.00;;;;;;;;4886989;29;45356;-80
2023/11/20 00:56:49;;;;;;;;;4.33;4.00;;;;;;;;4906844;28;45390;-80
2023/11/20 00:59:14;;;;;;;;;8.50;6.75;;;;;;;;4922927;28;45417;-80
2023/11/20 01:01:40;;;;;;;;;7.00;5.00;;;;;;;;4903374;28;45448;-80
2023/11/20 01:04:05;;;;;;;;;4.33;3.00;;;;;;;;4886408;29;45326;-80
2023/11/20 01:06:30;;;;;;;;;6.33;5.00;;;;;;;;4903423;29;45440;-80
2023/11/20 01:08:55;;;;;;;;;6.00;4.00;;;;;;;;4903454;29;45360;-80
2023/11/20 01:11:20;;;;;;;;;6.00;4.67;;;;;;;;4903439;29;45378;-80
2023/11/20 01:13:46;;;;;;;;;4.00;4.00;;;;;;;;4886694;29;45359;-80
2023/11/20 01:16:12;;;;;;;;;8.00;5.67;;;;;;;;4903548;29;45292;-80
2023/11/20 01:18:37;;;;;;;;;6.33;5.00;;;;;;;;4886093;29;47487;-80
2023/11/20 01:21:02;;;;;;;;;3.00;3.00;;;;;;;;4886302;29;46064;-80
2023/11/20 01:23:27;;;;;;;;;3.67;3.67;;;;;;;;4886609;29;45319;-80
2023/11/20 01:25:55;;;;;;;;;4.33;4.33;;;;;;;;4903367;29;45279;-80
2023/11/20 01:28:20;;;;;;;;;7.00;3.33;;;;;;;;4903406;29;45574;-81
2023/11/20 01:30:45;;;;;;;;;3.00;3.00;;;;;;;;4903520;29;45585;-79
2023/11/20 01:33:10;;;;;;;;;4.75;3.25;;;;;;;;4903658;29;45449;-80
2023/11/20 01:35:35;;;;;;;;;5.33;5.00;;;;;;;;4903305;29;45584;-80
2023/11/20 01:38:01;;;;;;;;;4.00;3.00;;;;;;;;4903306;29;45541;-80
2023/11/20 01:40:26;;;;;;;;;4.75;4.25;;;;;;;;4886429;29;45273;-80
2023/11/20 01:42:51;;;;;;;;;6.33;4.00;;;;;;;;4903366;29;45409;-81
2023/11/20 01:45:16;;;;;;;;;4.00;3.50;;;;;;;;4886368;29;47035;-81
2023/11/20 01:47:41;;;;;;;;;6.67;5.00;;;;;;;;4903151;29;46595;-81
2023/11/20 01:50:10;;;;;;;;;11.33;8.33;;;;;;;;4902845;29;45229;-81
2023/11/20 01:52:39;;;;;;;;;7.00;4.00;;;;;;;;4903347;29;45397;-81
2023/11/20 01:55:05;;;;;;;;;3.25;3.25;;;;;;;;4902908;29;45291;-80
2023/11/20 01:57:30;;;;;;;;;3.75;3.00;;;;;;;;4911240;28;45291;-80
2023/11/20 01:59:55;;;;;;;;;6.33;4.00;;;;;;;;4922297;28;45339;-81
2023/11/20 02:02:21;;;;;;;;;6.67;4.00;;;;;;;;4923064;28;45660;-82
2023/11/20 02:04:50;;;;;;;;;4.00;3.00;;;;;;;;4928389;28;45318;-80
2023/11/20 02:07:16;;;;;;;;;5.00;3.25;;;;;;;;4911093;28;47185;-80
2023/11/20 02:09:41;;;;;;;;;4.67;4.67;;;;;;;;4910773;28;45439;-80
2023/11/20 02:12:07;;;;;;;;;3.00;3.00;;;;;;;;4928488;28;45348;-80
2023/11/20 02:14:32;;;;;;;;;4.67;4.00;;;;;;;;4911040;28;46834;-81
2023/11/20 02:16:57;;;;;;;;;4.67;3.00;;;;;;;;4927970;28;45393;-81
2023/11/20 02:19:23;;;;;;;;;7.00;3.00;;;;;;;;4910823;28;45398;-81
2023/11/20 02:21:48;;;;;;;;;6.00;5.67;;;;;;;;4911161;28;45373;-80
2023/11/20 02:24:13;;;;;;;;;2.67;2.67;;;;;;;;4910910;28;46267;-81
2023/11/20 02:26:54;;;;;;;;;5.67;4.67;;;;;;;;4910851;28;47156;-80
2023/11/20 02:29:31;;;;;;;;;5.33;3.67;;;;;;;;4910790;28;45894;-80
2023/11/20 02:31:57;;;;;;;;;3.67;3.67;;;;;;;;4928203;28;45482;-80
2023/11/20 02:34:22;;;;;;;;;5.00;5.00;;;;;;;;4910650;28;47855;-80
2023/11/20 02:36:47;;;;;;;;;6.00;4.00;;;;;;;;4910561;28;47478;-80
2023/11/20 02:39:12;;;;;;;;;5.25;3.00;;;;;;;;4910813;28;45409;-80
2023/11/20 02:41:37;;;;;;;;;4.25;3.75;;;;;;;;4928126;28;45508;-80
2023/11/20 02:44:03;;;;;;;;;4.67;2.67;;;;;;;;4910814;28;46208;-82
2023/11/20 02:46:29;;;;;;;;;3.33;3.33;;;;;;;;4927914;28;46089;-80
2023/11/20 02:48:54;;;;;;;;;4.00;4.00;;;;;;;;4914460;28;45251;-81
2023/11/20 02:51:19;;;;;;;;;3.00;3.00;;;;;;;;4908592;29;45277;-80
2023/11/20 02:53:44;;;;;;;;;5.67;4.67;;;;;;;;4908748;29;45192;-81
2023/11/20 02:56:09;;;;;;;;;2.50;2.50;;;;;;;;4891390;29;47124;-80
2023/11/20 02:58:34;;;;;;;;;2.40;2.40;;;;;;;;4908593;28;45298;-80
2023/11/20 03:00:59;;;;;;;;;4.00;2.00;;;;;;;;4928020;28;45565;-80
2023/11/20 03:03:25;;;;;;;;;4.40;2.40;;;;;;;;4927658;28;45232;-81
2023/11/20 03:05:50;;;;;;;;;4.00;3.25;;;;;;;;4910540;28;48200;-80
2023/11/20 03:08:15;;;;;;;;;3.25;3.00;;;;;;;;4910613;28;45752;-80
2023/11/20 03:10:41;;;;;;;;;5.50;4.75;;;;;;;;4920284;28;45265;-81
2023/11/20 03:13:06;;;;;;;;;4.00;4.00;;;;;;;;4908234;29;45483;-81
2023/11/20 03:15:31;;;;;;;;;2.33;2.00;;;;;;;;4904096;29;46236;-80
2023/11/20 03:17:56;;;;;;;;;5.00;2.40;;;;;;;;4904366;29;45424;-81
2023/11/20 03:20:21;;;;;;;;;3.75;3.75;;;;;;;;4888472;29;45228;-80
2023/11/20 03:22:47;;;;;;;;;6.33;5.00;;;;;;;;4905399;29;45261;-80
2023/11/20 03:25:12;;;;;;;;;4.00;3.67;;;;;;;;4905285;29;46305;-81
2023/11/20 03:27:38;;;;;;;;;3.75;3.75;;;;;;;;4905217;29;45300;-80
2023/11/20 03:30:03;;;;;;;;;5.00;2.33;;;;;;;;4905515;29;45158;-81
2023/11/20 03:32:28;;;;;;;;;4.25;3.00;;;;;;;;4904795;29;45488;-81
2023/11/20 03:34:53;;;;;;;;;3.50;2.25;;;;;;;;4905199;29;46435;-81
2023/11/20 03:37:18;;;;;;;;;5.50;4.50;;;;;;;;4888214;29;45864;-80
2023/11/20 03:39:44;;;;;;;;;6.67;4.33;;;;;;;;4888013;29;45331;-81
2023/11/20 03:42:09;;;;;;;;;4.75;2.75;;;;;;;;4904919;29;45338;-80
2023/11/20 03:44:34;;;;;;;;;3.00;3.00;;;;;;;;4887636;29;48217;-81
2023/11/20 03:46:59;;;;;;;;;4.00;1.00;;;;;;;;4903820;29;45512;-81
2023/11/20 03:49:24;;;;;;;;;2.67;2.67;;;;;;;;4904858;29;45303;-80
2023/11/20 03:51:49;;;;;;;;;1.60;1.40;;;;;;;;4887903;29;45845;-80
2023/11/20 03:54:14;;;;;;;;;3.00;3.00;;;;;;;;4887734;29;48309;-80
2023/11/20 03:56:40;;;;;;;;;5.50;3.00;;;;;;;;4889526;28;45547;-80
2023/11/20 03:59:05;;;;;;;;;4.00;3.50;;;;;;;;4906654;28;45292;-80
2023/11/20 04:01:30;;;;;;;;;5.00;3.00;;;;;;;;4923451;28;45372;-81
2023/11/20 04:03:55;;;;;;;;;1.50;1.50;;;;;;;;4923570;28;45263;-80
2023/11/20 04:06:21;;;;;;;;;3.00;3.00;;;;;;;;4906793;28;45869;-80
2023/11/20 04:08:46;;;;;;;;;3.67;3.00;;;;;;;;4923845;28;45365;-80
2023/11/20 04:11:11;;;;;;;;;2.67;1.67;;;;;;;;4906285;28;46031;-80
2023/11/20 04:13:36;;;;;;;;;5.00;4.00;;;;;;;;4923604;28;46289;-80
2023/11/20 04:16:01;;;;;;;;;2.00;1.00;;;;;;;;4906234;28;45824;-80
2023/11/20 04:18:27;;;;;;;;;5.00;4.50;;;;;;;;4905993;28;45391;-80
2023/11/20 04:20:52;;;;;;;;;3.50;2.75;;;;;;;;4923456;28;45584;-80
2023/11/20 04:23:17;;;;;;;;;3.00;2.50;;;;;;;;4923422;28;46718;-80
2023/11/20 04:25:43;;;;;;;;;3.67;2.33;;;;;;;;4906024;28;45726;-80
2023/11/20 04:28:08;;;;;;;;;3.25;2.00;;;;;;;;4906248;28;45438;-81
2023/11/20 04:30:33;;;;;;;;;5.75;4.75;;;;;;;;4906292;28;46143;-80
2023/11/20 04:32:58;;;;;;;;;5.25;4.25;;;;;;;;4905805;28;48172;-80
2023/11/20 04:35:23;;;;;;;;;4.25;2.00;;;;;;;;4923025;28;45384;-81
2023/11/20 04:37:49;;;;;;;;;5.25;5.00;;;;;;;;4906284;28;45307;-80
2023/11/20 04:40:14;;;;;;;;;4.00;3.00;;;;;;;;4923298;28;45570;-81
2023/11/20 04:42:39;;;;;;;;;3.00;3.00;;;;;;;;4905753;28;47176;-81
2023/11/20 04:45:05;;;;;;;;;4.75;3.25;;;;;;;;4923172;28;45321;-80
2023/11/20 04:47:31;;;;;;;;;6.00;4.00;;;;;;;;4922981;28;45379;-81
2023/11/20 04:49:56;;;;;;;;;3.25;3.25;;;;;;;;4922926;28;45424;-80
2023/11/20 04:52:21;;;;;;;;;2.25;2.25;;;;;;;;4922921;28;45714;-81
2023/11/20 04:54:47;;;;;;;;;2.60;2.00;;;;;;;;4923121;28;45208;-80
2023/11/20 04:57:12;;;;;;;;;4.75;3.00;;;;;;;;4899404;29;45312;-81
2023/11/20 04:59:37;;;;;;;;;3.00;3.00;;;;;;;;4886702;29;47225;-80
2023/11/20 05:02:02;;;;;;;;;4.00;3.00;;;;;;;;4903632;29;45453;-80
2023/11/20 05:04:28;;;;;;;;;3.50;2.25;;;;;;;;4886669;29;45287;-80
2023/11/20 05:06:53;;;;;;;;;5.00;4.50;;;;;;;;4903973;29;45500;-80
2023/11/20 05:09:18;;;;;;;;;3.00;1.00;;;;;;;;4902661;29;45466;-81
2023/11/20 05:11:46;;;;;;;;;3.00;2.00;;;;;;;;4903672;29;45342;-81
2023/11/20 05:14:12;;;;;;;;;4.00;3.00;;;;;;;;4903726;29;45274;-80
2023/11/20 05:16:37;;;;;;;;;7.67;5.67;;;;;;;;4903513;29;45272;-80
2023/11/20 05:19:02;;;;;;;;;4.67;4.67;;;;;;;;4886155;29;46091;-81
2023/11/20 05:21:28;;;;;;;;;3.00;3.00;;;;;;;;4903258;29;46366;-80
2023/11/20 05:23:53;;;;;;;;;2.00;2.00;;;;;;;;4886138;29;45386;-80
2023/11/20 05:26:18;;;;;;;;;8.67;2.33;;;;;;;;4902829;29;45308;-80
2023/11/20 05:28:44;;;;;;;;;5.67;5.67;;;;;;;;4886452;29;47294;-80
2023/11/20 05:31:09;;;;;;;;;5.00;4.67;;;;;;;;4886139;29;47055;-81
2023/11/20 05:33:34;;;;;;;;;3.33;2.67;;;;;;;;4886133;29;45253;-80
2023/11/20 05:36:00;;;;;;;;;2.00;2.00;;;;;;;;4903483;29;45228;-80
2023/11/20 05:38:25;;;;;;;;;3.00;3.00;;;;;;;;4902842;29;45355;-80
2023/11/20 05:40:50;;;;;;;;;3.00;2.25;;;;;;;;4886239;29;47437;-81
2023/11/20 05:43:15;;;;;;;;;4.33;3.33;;;;;;;;4903477;29;45381;-80
2023/11/20 05:45:40;;;;;;;;;6.50;5.00;;;;;;;;4886263;29;45330;-81
2023/11/20 05:48:06;;;;;;;;;6.67;4.00;;;;;;;;4902924;29;45362;-80
2023/11/20 05:50:31;;;;;;;;;4.50;3.00;;;;;;;;4903080;29;45395;-80
2023/11/20 05:52:56;;;;;;;;;2.00;2.00;;;;;;;;4903220;29;45393;-80
2023/11/20 05:55:21;;;;;;;;;3.00;3.00;;;;;;;;4886063;29;45282;-80
2023/11/20 05:57:46;;;;;;;;;5.00;4.00;;;;;;;;4896666;28;46061;-80
2023/11/20 06:00:12;;;;;;;;;5.00;5.00;;;;;;;;4904840;28;46934;-81
2023/11/20 06:02:37;;;;;;;;;5.00;5.00;;;;;;;;4904714;28;45782;-80
2023/11/20 06:05:03;;;;;;;;;2.00;2.00;;;;;;;;4922126;28;45505;-81
2023/11/20 06:07:28;;;;;;;;;5.67;5.67;;;;;;;;4922114;28;45462;-81
2023/11/20 06:09:53;;;;;;;;;4.50;4.50;;;;;;;;4921923;28;45367;-80
2023/11/20 06:12:19;;;;;;;;;8.00;4.00;;;;;;;;4921874;28;45317;-80
2023/11/20 06:14:44;;;;;;;;;3.25;2.50;;;;;;;;4904891;28;45446;-80
2023/11/20 06:17:09;;;;;;;;;4.00;4.00;;;;;;;;4921841;28;45561;-81
2023/11/20 06:19:34;;;;;;;;;4.00;2.67;;;;;;;;4921883;28;45523;-80
2023/11/20 06:21:59;;;;;;;;;7.00;4.00;;;;;;;;4922128;28;45388;-80
2023/11/20 06:24:24;;;;;;;;;4.67;4.67;;;;;;;;4904984;28;45350;-80
2023/11/20 06:26:50;;;;;;;;;6.00;4.00;;;;;;;;4921765;28;45314;-80
2023/11/20 06:29:15;;;;;;;;;6.25;3.75;;;;;;;;4904573;28;48194;-81
2023/11/20 06:31:40;;;;;;;;;3.67;3.00;;;;;;;;4921404;28;45396;-81
2023/11/20 06:34:05;;;;;;;;;8.50;4.50;;;;;;;;4921810;28;45324;-81
2023/11/20 06:36:31;;;;;;;;;6.00;4.00;;;;;;;;4921573;28;45691;-80
2023/11/20 06:38:58;;;;;;;;;6.33;5.00;;;;;;;;4921554;28;45323;-81
2023/11/20 06:41:23;;;;;;;;;6.67;4.67;;;;;;;;4904330;28;45997;-81
2023/11/20 06:43:48;;;;;;;;;5.00;4.33;;;;;;;;4921715;28;45287;-80
2023/11/20 06:46:17;;;;;;;;;5.00;5.00;;;;;;;;4921548;28;45327;-81
2023/11/20 06:48:42;;;;;;;;;5.33;5.33;;;;;;;;4904183;28;48431;-82
2023/11/20 06:51:10;;;;;;;;;8.67;7.67;;;;;;;;4908723;28;45336;-82
2023/11/20 06:53:36;;;;;;;;;7.33;5.33;;;;;;;;4905883;29;45379;-82
2023/11/20 06:56:01;;;;;;;;;12.33;12.00;;;;;;;;4904396;29;45232;-82
2023/11/20 06:58:26;;;;;;;;;10.00;10.00;;;;;;;;4905017;29;45498;-82
2023/11/20 07:00:51;;;;;;;;;11.00;11.00;;;;;;;;4905713;29;45544;-82
2023/11/20 07:03:19;;;;;;;;;15.00;11.00;;;;;;;;4905571;29;45341;-82
2023/11/20 07:05:45;;;;;;;;;8.00;8.00;;;;;;;;4905626;29;45327;-81
2023/11/20 07:08:10;;;;;;;;;11.00;9.33;;;;;;;;4888310;29;48149;-80
2023/11/20 07:10:36;;;;;;;;;11.33;9.33;;;;;;;;4905361;29;45201;-81
2023/11/20 07:13:01;;;;;;;;;9.00;6.00;;;;;;;;4905647;29;45200;-81
2023/11/20 07:15:27;;;;;;;;;8.33;7.00;;;;;;;;4905402;29;45265;-82
2023/11/20 07:17:52;;;;;;;;;7.33;7.33;;;;;;;;4905491;29;45466;-82
2023/11/20 07:20:17;;;;;;;;;6.50;6.50;;;;;;;;4905459;29;45236;-83
2023/11/20 07:22:43;;;;;;;;;4.67;4.67;;;;;;;;4907359;29;45250;-78
2023/11/20 07:25:08;;;;;;;;;7.00;5.00;;;;;;;;4906145;29;45216;-79
2023/11/20 07:27:36;;;;;;;;;9.00;7.00;;;;;;;;4888006;29;47361;-79
2023/11/20 07:30:03;;;;;;;;;7.33;6.67;;;;;;;;4904754;29;45374;-79
2023/11/20 07:32:28;;;;;;;;;5.33;5.00;;;;;;;;4887798;29;45375;-77
2023/11/20 07:34:53;;;;;;;;;5.33;5.33;;;;;;;;4904821;29;45490;-77
2023/11/20 07:37:18;;;;;;;;;4.50;4.50;;;;;;;;4904928;29;45357;-77
2023/11/20 07:39:45;;;;;;;;;5.00;4.67;;;;;;;;4888231;29;45343;-77
2023/11/20 07:42:10;;;;;;;;;3.75;3.75;;;;;;;;4888739;29;45349;-79
2023/11/20 07:44:36;;;;;;;;;5.00;3.25;;;;;;;;4905783;29;45874;-79
2023/11/20 07:47:01;;;;;;;;;5.75;3.00;;;;;;;;4905712;29;45347;-78
2023/11/20 07:49:31;;;;;;;;;4.00;4.00;;;;;;;;4907666;29;45329;-79
2023/11/20 07:51:57;;;;;;;;;3.25;3.25;;;;;;;;4908195;29;45378;-79
2023/11/20 07:54:22;;;;;;;;;3.50;3.50;;;;;;;;4905058;29;45368;-79
2023/11/20 07:56:47;;;;;;;;;5.00;4.00;;;;;;;;4904115;29;45430;-79
2023/11/20 07:59:12;;;;;;;;;6.67;4.00;;;;;;;;4904871;29;45223;-78
2023/11/20 08:01:37;;;;;;;;;5.00;5.00;;;;;;;;4886842;29;45633;-77
2023/11/20 08:04:04;;;;;;;;;4.33;3.33;;;;;;;;4902659;29;45397;-77
2023/11/20 08:06:29;;;;;;;;;5.67;5.67;;;;;;;;4897565;28;46132;-77
2023/11/20 08:08:54;;;;;;;;;7.00;7.00;;;;;;;;4887880;29;45457;-77
2023/11/20 08:11:19;;;;;;;;;4.50;3.00;;;;;;;;4901583;29;45456;-76
2023/11/20 08:13:46;;;;;;;;;5.75;4.00;;;;;;;;4903419;29;45617;-77
2023/11/20 08:16:11;;;;;;;;;4.50;3.50;;;;;;;;4883509;29;48008;-77
2023/11/20 08:18:37;;;;;;;;;4.00;3.33;;;;;;;;4892450;29;45284;-77
2023/11/20 08:21:02;;;;;;;;;3.50;3.50;;;;;;;;4897959;29;45465;-77
2023/11/20 08:23:28;;;;;;;;;5.00;5.00;;;;;;;;4902563;29;47235;-76
2023/11/20 08:25:53;;;;;;;;;5.00;4.00;;;;;;;;4900727;29;45215;-77
2023/11/20 08:28:18;;;;;;;;;3.00;3.00;;;;;;;;4903094;29;45318;-77
2023/11/20 08:30:43;;;;;;;;;2.33;2.33;;;;;;;;4898070;29;45376;-78
2023/11/20 08:33:08;;;;;;;;;4.00;4.00;;;;;;;;4884076;29;45365;-77
2023/11/20 08:35:34;;;;;;;;;3.00;2.00;;;;;;;;4884649;29;48138;-76
2023/11/20 08:38:00;;;;;;;;;2.25;2.25;;;;;;;;4903030;29;45411;-76
2023/11/20 08:40:25;;;;;;;;;4.67;4.00;;;;;;;;4902822;29;45410;-77
2023/11/20 08:42:50;;;;;;;;;2.50;2.25;;;;;;;;4902611;29;45590;-76
2023/11/20 08:45:15;;;;;;;;;3.00;3.00;;;;;;;;4903429;29;46351;-77
2023/11/20 08:47:41;;;;;;;;;4.00;4.00;;;;;;;;4899545;28;45408;-79
2023/11/20 08:50:06;;;;;;;;;3.33;2.67;;;;;;;;4902457;29;45303;-78
2023/11/20 08:52:31;;;;;;;;;2.67;2.67;;;;;;;;4907093;28;45501;-78
2023/11/20 08:54:57;;;;;;;;;5.00;4.00;;;;;;;;4888857;28;46282;-77
2023/11/20 08:57:22;;;;;;;;;4.00;3.00;;;;;;;;4899108;28;45635;-77
2023/11/20 08:59:48;;;;;;;;;2.67;2.33;;;;;;;;4883616;29;45666;-76
2023/11/20 09:02:13;;;;;;;;;6.00;3.00;;;;;;;;4900385;28;45517;-76
2023/11/20 09:04:39;;;;;;;;;3.67;3.67;;;;;;;;4900235;29;45465;-77
2023/11/20 09:07:05;;;;;;;;;2.67;2.33;;;;;;;;4900291;28;45750;-77
2023/11/20 09:09:30;;;;;;;;;2.33;2.33;;;;;;;;4900326;29;45492;-77
2023/11/20 09:11:55;;;;;;;;;2.00;2.00;;;;;;;;4882145;28;47173;-78
2023/11/20 09:14:20;;;;;;;;;6.33;3.33;;;;;;;;4885293;29;47085;-77
2023/11/20 09:16:46;;;;;;;;;2.75;2.00;;;;;;;;4902562;29;45538;-78
2023/11/20 09:19:11;;;;;;;;;3.33;3.33;;;;;;;;4902694;28;45632;-76
2023/11/20 09:21:36;;;;;;;;;4.00;4.00;;;;;;;;4885867;28;46874;-77
2023/11/20 09:24:01;;;;;;;;;6.33;5.00;;;;;;;;4885780;29;48387;-77
2023/11/20 09:26:26;;;;;;;;;6.67;5.33;;;;;;;;4885035;28;45760;-76
2023/11/20 09:28:52;;;;;;;;;4.00;3.00;;;;;;;;4902817;29;45327;-77
2023/11/20 09:31:17;;;;;;;;;2.00;2.00;;;;;;;;4902758;29;45292;-76
2023/11/20 09:33:43;;;;;;;;;6.00;3.00;;;;;;;;4902451;28;46464;-77
2023/11/20 09:36:09;;;;;;;;;1.00;0.00;;;;;;;;4902493;29;45343;-76
2023/11/20 09:38:35;;;;;;;;;2.00;2.00;;;;;;;;4902546;29;45442;-76
2023/11/20 09:41:01;;;;;;;;;2.67;1.00;;;;;;;;4901959;29;45390;-76
2023/11/20 09:43:29;;;;;;;;;3.00;3.00;;;;;;;;4902724;29;45334;-76
2023/11/20 09:45:57;;;;;;;;;2.67;1.67;;;;;;;;4885399;29;45252;-76
2023/11/20 09:48:23;;;;;;;;;4.00;2.67;;;;;;;;4902113;29;45692;-76
2023/11/20 09:50:49;;;;;;;;;3.33;3.33;;;;;;;;4902605;29;45250;-76
2023/11/20 09:53:15;;;;;;;;;5.33;3.00;;;;;;;;4902361;29;46024;-76
2023/11/20 09:55:40;;;;;;;;;6.67;4.33;;;;;;;;4901260;29;46247;-76
2023/11/20 09:58:06;;;;;;;;;5.00;3.00;;;;;;;;4916159;28;45287;-76
2023/11/20 10:00:31;;;;;;;;;8.00;6.00;;;;;;;;4921844;28;45481;-77
2023/11/20 10:02:57;;;;;;;;;4.00;2.00;;;;;;;;4904667;28;46885;-77
2023/11/20 10:05:27;;;;;;;;;2.67;2.67;;;;;;;;4921915;28;45334;-77
2023/11/20 10:07:55;;;;;;;;;2.33;2.33;;;;;;;;4922313;28;45352;-76
2023/11/20 10:10:20;;;;;;;;;2.67;2.67;;;;;;;;4904604;28;46083;-78
2023/11/20 10:12:47;;;;;;;;;3.67;3.00;;;;;;;;4904662;28;46436;-76
2023/11/20 10:15:13;;;;;;;;;4.67;2.67;;;;;;;;4921763;28;45412;-76
2023/11/20 10:17:39;;;;;;;;;1.33;0.33;;;;;;;;4921782;28;45316;-76
2023/11/20 10:20:09;;;;;;;;;3.33;1.67;;;;;;;;4921707;28;45253;-77
2023/11/20 10:22:34;;;;;;;;;3.33;1.67;;;;;;;;4904653;28;48259;-76
2023/11/20 10:25:03;;;;;;;;;5.00;4.67;;;;;;;;4924503;28;45358;-77
2023/11/20 10:27:29;;;;;;;;;3.00;3.00;;;;;;;;4925439;28;45369;-77
2023/11/20 10:29:54;;;;;;;;;1.33;1.33;;;;;;;;4924740;28;45495;-76
2023/11/20 10:32:19;;;;;;;;;1.00;1.00;;;;;;;;4924767;28;46157;-77
2023/11/20 10:34:44;;;;;;;;;1.33;1.33;;;;;;;;4904345;29;45360;-76
2023/11/20 10:37:10;;;;;;;;;2.33;2.33;;;;;;;;4902617;28;45336;-76
2023/11/20 10:39:35;;;;;;;;;2.00;1.67;;;;;;;;4904479;28;45451;-75
2023/11/20 10:42:00;;;;;;;;;3.33;3.33;;;;;;;;4904449;29;46050;-76
2023/11/20 10:44:26;;;;;;;;;4.00;3.00;;;;;;;;4903959;29;45479;-75
2023/11/20 10:46:51;;;;;;;;;3.00;2.25;;;;;;;;4887278;29;45456;-76
2023/11/20 10:49:19;;;;;;;;;3.33;3.00;;;;;;;;4904550;29;45569;-76
2023/11/20 10:51:51;;;;;;;;;2.00;1.00;;;;;;;;4904328;29;45344;-76
2023/11/20 10:54:19;;;;;;;;;1.00;1.00;;;;;;;;4904740;29;45681;-78
2023/11/20 10:56:45;;;;;;;;;0.33;0.33;;;;;;;;4889487;28;45379;-76
2023/11/20 10:59:10;;;;;;;;;2.00;1.33;;;;;;;;4888166;29;45265;-76
2023/11/20 11:01:36;;;;;;;;;1.33;1.33;;;;;;;;4891550;29;45439;-77
2023/11/20 11:04:01;;;;;;;;;2.33;2.33;;;;;;;;4878589;29;46564;-79
2023/11/20 11:06:30;;;;;;;;;1.50;1.00;;;;;;;;4878101;29;45519;-77
2023/11/20 11:08:56;;;;;;;;;0.00;0.00;;;;;;;;4894678;29;45263;-77
2023/11/20 11:11:22;;;;;;;;;5.00;1.67;;;;;;;;4904870;29;46252;-77
2023/11/20 11:13:51;;;;;;;;;1.75;1.00;;;;;;;;4905476;29;45343;-77
2023/11/20 11:16:37;;;;;;;;;2.00;1.75;;;;;;;;4888360;29;45401;-76
2023/11/20 11:19:06;;;;;;;;;1.00;1.00;;;;;;;;4905301;29;45402;-77
2023/11/20 11:21:39;;;;;;;;;1.25;0.00;;;;;;;;4888263;29;47965;-78
2023/11/20 11:24:07;;;;;;;;;1.25;1.00;;;;;;;;4884721;29;45339;-78
2023/11/20 11:26:52;;;;;;;;;2.00;2.00;;;;;;;;4905068;29;45265;-76
2023/11/20 11:29:21;;;;;;;;;1.25;0.50;;;;;;;;4887979;29;46484;-77
2023/11/20 11:32:19;;;;;;;;;3.00;2.25;;;;;;;;4903582;29;46661;-77
2023/11/20 11:34:47;;;;;;;;;0.00;0.00;;;;;;;;4862890;29;45523;-79
2023/11/20 11:37:12;;;;;;;;;0.25;0.25;;;;;;;;4904598;29;45323;-77
2023/11/20 11:39:46;;;;;;;;;1.00;1.00;;;;;;;;4888147;29;45439;-76
2023/11/20 11:42:17;;;;;;;;;1.00;1.00;;;;;;;;4902341;28;46898;-76
2023/11/20 11:44:56;;;;;;;;;0.00;0.00;;;;;;;;4904439;29;45372;-76
2023/11/20 11:47:23;;;;;;;;;0.50;0.00;;;;;;;;4903806;28;45355;-77
2023/11/20 11:49:48;;;;;;;;;0.25;0.25;;;;;;;;4882219;29;46054;-77
2023/11/20 11:52:17;;;;;;;;;1.00;0.00;;;;;;;;4887406;29;45460;-76
2023/11/20 11:54:42;;;;;;;;;1.50;0.00;;;;;;;;4904667;29;45340;-76
2023/11/20 11:57:18;;;;;;;;;1.75;1.00;;;;;;;;4910240;28;45375;-76
2023/11/20 11:59:45;;;;;;;;;5.00;0.00;;;;;;;;4923573;28;45414;-76
2023/11/20 12:02:12;;;;;;;;;0.00;0.00;;;;;;;;4923229;28;46391;-77
2023/11/20 12:04:49;;;;;;;;;0.00;0.00;;;;;;;;4896453;29;45375;-77
2023/11/20 12:07:15;;;;;;;;;0.00;0.00;;;;;;;;4903996;29;45449;-77
2023/11/20 12:09:56;;;;;;;;;2.00;1.00;;;;;;;;4904332;29;45398;-77
2023/11/20 12:12:40;;;;;;;;;5.00;5.00;;;;;;;;4887459;29;48436;-78
2023/11/20 12:15:25;;;;;;;;;3.50;2.00;;;;;;;;4904702;29;45229;-76
2023/11/20 12:17:52;;;;;;;;;0.00;0.00;;;;;;;;4905431;29;45483;-80
2023/11/20 12:20:17;;;;;;;;;1.00;1.00;;;;;;;;4905193;29;45238;-78
2023/11/20 12:22:42;;;;;;;;;3.75;1.00;;;;;;;;4903496;29;46108;-78
2023/11/20 12:25:07;;;;;;;;;2.00;2.00;;;;;;;;4901190;28;45501;-78
2023/11/20 12:27:36;;;;;;;;;1.00;1.00;;;;;;;;4885913;29;45314;-77
2023/11/20 12:30:02;;;;;;;;;2.00;2.00;;;;;;;;4889971;29;46239;-82
2023/11/20 12:32:27;;;;;;;;;3.00;1.00;;;;;;;;4904612;29;45402;-81
2023/11/20 12:34:53;;;;;;;;;0.50;0.50;;;;;;;;4904659;29;45366;-78
2023/11/20 12:37:18;;;;;;;;;1.25;0.75;;;;;;;;4903633;29;45398;-79
2023/11/20 12:39:44;;;;;;;;;1.75;1.75;;;;;;;;4904833;29;45365;-80
2023/11/20 12:42:10;;;;;;;;;1.25;1.25;;;;;;;;4904320;29;46366;-78
2023/11/20 12:44:35;;;;;;;;;3.75;1.50;;;;;;;;4902813;29;45277;-79
2023/11/20 12:47:04;;;;;;;;;3.20;1.80;;;;;;;;4901865;29;45524;-78
2023/11/20 12:49:29;;;;;;;;;2.75;2.75;;;;;;;;4884388;29;45465;-78
2023/11/20 12:51:54;;;;;;;;;1.00;1.00;;;;;;;;4885890;29;47348;-78
2023/11/20 12:54:19;;;;;;;;;1.25;0.75;;;;;;;;4904404;29;45391;-78
2023/11/20 12:56:45;;;;;;;;;3.00;2.00;;;;;;;;4901432;29;45456;-79
2023/11/20 12:59:12;;;;;;;;;2.00;2.00;;;;;;;;4886740;29;46055;-78
2023/11/20 13:01:37;;;;;;;;;3.00;2.00;;;;;;;;4902575;29;45477;-78
2023/11/20 13:04:04;;;;;;;;;1.00;0.75;;;;;;;;4867556;29;46063;-77
2023/11/20 13:06:30;;;;;;;;;2.00;2.00;;;;;;;;4884280;29;45336;-77
2023/11/20 13:08:55;;;;;;;;;2.00;2.00;;;;;;;;4866247;29;47239;-76
2023/11/20 13:11:22;;;;;;;;;4.00;3.50;;;;;;;;4867486;29;46989;-77
2023/11/20 13:13:48;;;;;;;;;3.00;1.25;;;;;;;;4884727;29;45289;-77
2023/11/20 13:16:14;;;;;;;;;3.00;1.75;;;;;;;;4884862;29;45387;-76
2023/11/20 13:18:49;;;;;;;;;1.00;1.00;;;;;;;;4884832;29;46105;-77
2023/11/20 13:21:21;;;;;;;;;0.75;0.50;;;;;;;;4888359;29;45403;-77
2023/11/20 13:23:56;;;;;;;;;2.67;2.67;;;;;;;;4903496;29;45264;-77
2023/11/20 13:26:21;;;;;;;;;0.50;0.50;;;;;;;;4903020;28;45501;-76
2023/11/20 13:28:47;;;;;;;;;3.75;2.00;;;;;;;;4902412;29;45398;-76
2023/11/20 13:31:13;;;;;;;;;1.00;1.00;;;;;;;;4902975;28;45272;-78
2023/11/20 13:33:46;;;;;;;;;1.67;1.67;;;;;;;;4900465;29;45365;-77
2023/11/20 13:36:12;;;;;;;;;1.00;1.00;;;;;;;;4895211;28;45410;-77
2023/11/20 13:38:37;;;;;;;;;1.00;1.00;;;;;;;;4898139;29;45402;-78
2023/11/20 13:41:03;;;;;;;;;2.00;1.00;;;;;;;;4895119;29;45516;-77
2023/11/20 13:43:28;;;;;;;;;3.00;1.00;;;;;;;;4896826;29;45696;-77
2023/11/20 13:45:59;;;;;;;;;3.00;3.00;;;;;;;;4888183;29;45363;-77
2023/11/20 13:48:30;;;;;;;;;1.00;1.00;;;;;;;;4876461;29;46568;-77
2023/11/20 13:50:58;;;;;;;;;2.00;2.00;;;;;;;;4874849;29;47581;-77
2023/11/20 13:53:25;;;;;;;;;2.00;2.00;;;;;;;;4893547;29;45735;-77
2023/11/20 13:55:54;;;;;;;;;3.25;3.25;;;;;;;;4898696;29;45185;-77
2023/11/20 13:58:22;;;;;;;;;2.00;1.00;;;;;;;;4895332;28;45728;-77
2023/11/20 14:00:48;;;;;;;;;2.00;2.00;;;;;;;;4891906;29;45338;-76
2023/11/20 14:03:15;;;;;;;;;2.00;2.00;;;;;;;;4900393;29;45363;-77
2023/11/20 14:05:41;;;;;;;;;0.75;0.00;;;;;;;;4892825;29;45369;-77
2023/11/20 14:08:06;;;;;;;;;2.50;0.00;;;;;;;;4875483;29;47297;-77
2023/11/20 14:10:31;;;;;;;;;1.25;1.00;;;;;;;;4894602;29;47559;-77
2023/11/20 14:12:57;;;;;;;;;3.40;2.20;;;;;;;;4898844;29;45233;-76
2023/11/20 14:15:25;;;;;;;;;5.25;3.00;;;;;;;;4902600;29;45251;-76
2023/11/20 14:17:55;;;;;;;;;2.00;2.00;;;;;;;;4899842;29;45415;-77
2023/11/20 14:20:20;;;;;;;;;5.67;5.00;;;;;;;;4902096;29;46020;-76
2023/11/20 14:22:45;;;;;;;;;3.25;3.00;;;;;;;;4901735;29;45355;-76
2023/11/20 14:25:13;;;;;;;;;2.00;2.00;;;;;;;;4902096;29;45279;-77
2023/11/20 14:27:39;;;;;;;;;4.67;3.00;;;;;;;;4897058;29;45343;-77
2023/11/20 14:30:11;;;;;;;;;2.00;2.00;;;;;;;;4901628;29;45872;-76
2023/11/20 14:32:38;;;;;;;;;4.00;2.67;;;;;;;;4901922;29;45244;-77
2023/11/20 14:35:04;;;;;;;;;5.00;5.00;;;;;;;;4902008;29;45713;-76
2023/11/20 14:37:29;;;;;;;;;4.25;1.75;;;;;;;;4901339;29;45314;-77